sensor_id;sensor_type;location;lat;lon;timestamp;P1;durP1;ratioP1;P2;durP2;ratioP2
30519;SDS011;17300;50.374;8.006;2023-12-22T00:02:02;4.50;;;0.83;;
30519;SDS011;17300;50.374;8.006;2023-12-22T00:04:30;3.03;;;0.80;;
30519;SDS011;17300;50.374;8.006;2023-12-22T00:06:56;1.63;;;0.60;;
30519;SDS011;17300;50.374;8.006;2023-12-22T00:09:23;1.67;;;0.60;;
30519;SDS011;17300;50.374;8.006;2023-12-22T00:11:49;0.73;;;0.50;;
30519;SDS011;17300;50.374;8.006;2023-12-22T00:14:16;1.13;;;0.50;;
30519;SDS011;17300;50.374;8.006;2023-12-22T00:16:43;1.10;;;0.60;;
30519;SDS011;17300;50.374;8.006;2023-12-22T00:19:10;1.47;;;0.50;;
30519;SDS011;17300;50.374;8.006;2023-12-22T00:21:38;1.50;;;0.50;;
30519;SDS011;17300;50.374;8.006;2023-12-22T00:24:04;1.40;;;0.53;;
30519;SDS011;17300;50.374;8.006;2023-12-22T00:26:31;1.27;;;0.60;;
30519;SDS011;17300;50.374;8.006;2023-12-22T00:28:58;1.00;;;0.50;;
30519;SDS011;17300;50.374;8.006;2023-12-22T00:31:25;1.77;;;0.60;;
30519;SDS011;17300;50.374;8.006;2023-12-22T00:33:51;0.80;;;0.60;;
30519;SDS011;17300;50.374;8.006;2023-12-22T00:36:18;0.60;;;0.33;;
30519;SDS011;17300;50.374;8.006;2023-12-22T00:38:49;0.90;;;0.40;;
30519;SDS011;17300;50.374;8.006;2023-12-22T00:41:16;1.00;;;0.40;;
30519;SDS011;17300;50.374;8.006;2023-12-22T00:43:43;0.87;;;0.37;;
30519;SDS011;17300;50.374;8.006;2023-12-22T00:46:09;0.97;;;0.40;;
30519;SDS011;17300;50.374;8.006;2023-12-22T00:48:36;0.60;;;0.30;;
30519;SDS011;17300;50.374;8.006;2023-12-22T00:51:03;0.53;;;0.50;;
30519;SDS011;17300;50.374;8.006;2023-12-22T00:53:31;1.23;;;0.40;;
30519;SDS011;17300;50.374;8.006;2023-12-22T00:55:59;1.97;;;0.60;;
30519;SDS011;17300;50.374;8.006;2023-12-22T00:58:25;1.40;;;0.80;;
30519;SDS011;17300;50.374;8.006;2023-12-22T01:00:52;0.70;;;0.40;;
30519;SDS011;17300;50.374;8.006;2023-12-22T01:03:19;1.60;;;0.30;;
30519;SDS011;17300;50.374;8.006;2023-12-22T01:05:45;0.63;;;0.30;;
30519;SDS011;17300;50.374;8.006;2023-12-22T01:08:12;0.17;;;0.17;;
30519;SDS011;17300;50.374;8.006;2023-12-22T01:10:39;1.07;;;0.30;;
30519;SDS011;17300;50.374;8.006;2023-12-22T01:13:07;0.10;;;0.10;;
30519;SDS011;17300;50.374;8.006;2023-12-22T01:15:33;0.40;;;0.10;;
30519;SDS011;17300;50.374;8.006;2023-12-22T01:18:00;0.10;;;0.10;;
30519;SDS011;17300;50.374;8.006;2023-12-22T01:20:27;0.10;;;0.10;;
30519;SDS011;17300;50.374;8.006;2023-12-22T01:22:53;0.43;;;0.10;;
30519;SDS011;17300;50.374;8.006;2023-12-22T01:25:20;0.03;;;0.03;;
30519;SDS011;17300;50.374;8.006;2023-12-22T01:27:46;0.10;;;0.10;;
30519;SDS011;17300;50.374;8.006;2023-12-22T01:30:16;0.27;;;0.13;;
30519;SDS011;17300;50.374;8.006;2023-12-22T01:32:43;0.20;;;0.20;;
30519;SDS011;17300;50.374;8.006;2023-12-22T01:35:10;0.10;;;0.10;;
30519;SDS011;17300;50.374;8.006;2023-12-22T01:37:36;0.13;;;0.10;;
30519;SDS011;17300;50.374;8.006;2023-12-22T01:40:03;0.40;;;0.13;;
30519;SDS011;17300;50.374;8.006;2023-12-22T01:42:31;0.40;;;0.13;;
30519;SDS011;17300;50.374;8.006;2023-12-22T01:44:57;0.10;;;0.10;;
30519;SDS011;17300;50.374;8.006;2023-12-22T01:47:25;0.27;;;0.10;;
30519;SDS011;17300;50.374;8.006;2023-12-22T01:49:53;0.03;;;0.03;;
30519;SDS011;17300;50.374;8.006;2023-12-22T01:52:19;0.20;;;0.13;;
30519;SDS011;17300;50.374;8.006;2023-12-22T01:54:47;0.10;;;0.10;;
30519;SDS011;17300;50.374;8.006;2023-12-22T01:57:14;0.20;;;0.10;;
30519;SDS011;17300;50.374;8.006;2023-12-22T01:59:43;0.20;;;0.20;;
30519;SDS011;17300;50.374;8.006;2023-12-22T02:02:10;0.43;;;0.20;;
30519;SDS011;17300;50.374;8.006;2023-12-22T02:04:38;0.07;;;0.07;;
30519;SDS011;17300;50.374;8.006;2023-12-22T02:07:06;0.23;;;0.20;;
30519;SDS011;17300;50.374;8.006;2023-12-22T02:09:35;0.30;;;0.20;;
30519;SDS011;17300;50.374;8.006;2023-12-22T02:12:02;0.40;;;0.20;;
30519;SDS011;17300;50.374;8.006;2023-12-22T02:14:29;0.27;;;0.10;;
30519;SDS011;17300;50.374;8.006;2023-12-22T02:17:00;0.50;;;0.30;;
30519;SDS011;17300;50.374;8.006;2023-12-22T02:19:40;0.30;;;0.10;;
30519;SDS011;17300;50.374;8.006;2023-12-22T02:22:09;0.20;;;0.20;;
30519;SDS011;17300;50.374;8.006;2023-12-22T02:24:38;0.40;;;0.23;;
30519;SDS011;17300;50.374;8.006;2023-12-22T02:27:05;0.53;;;0.20;;
30519;SDS011;17300;50.374;8.006;2023-12-22T02:29:40;0.50;;;0.20;;
30519;SDS011;17300;50.374;8.006;2023-12-22T02:32:10;0.73;;;0.30;;
30519;SDS011;17300;50.374;8.006;2023-12-22T02:34:42;0.17;;;0.10;;
30519;SDS011;17300;50.374;8.006;2023-12-22T02:37:10;0.53;;;0.20;;
30519;SDS011;17300;50.374;8.006;2023-12-22T02:39:39;0.60;;;0.43;;
30519;SDS011;17300;50.374;8.006;2023-12-22T02:42:08;0.33;;;0.20;;
30519;SDS011;17300;50.374;8.006;2023-12-22T02:44:35;0.77;;;0.40;;
30519;SDS011;17300;50.374;8.006;2023-12-22T02:47:02;0.83;;;0.20;;
30519;SDS011;17300;50.374;8.006;2023-12-22T02:49:29;1.30;;;0.40;;
30519;SDS011;17300;50.374;8.006;2023-12-22T02:51:55;0.33;;;0.23;;
30519;SDS011;17300;50.374;8.006;2023-12-22T02:54:22;0.80;;;0.40;;
30519;SDS011;17300;50.374;8.006;2023-12-22T02:56:50;0.70;;;0.50;;
30519;SDS011;17300;50.374;8.006;2023-12-22T02:59:17;0.77;;;0.30;;
30519;SDS011;17300;50.374;8.006;2023-12-22T03:01:43;0.63;;;0.40;;
30519;SDS011;17300;50.374;8.006;2023-12-22T03:04:10;0.43;;;0.37;;
30519;SDS011;17300;50.374;8.006;2023-12-22T03:06:36;1.33;;;0.50;;
30519;SDS011;17300;50.374;8.006;2023-12-22T03:09:03;0.70;;;0.33;;
30519;SDS011;17300;50.374;8.006;2023-12-22T03:11:31;0.40;;;0.30;;
30519;SDS011;17300;50.374;8.006;2023-12-22T03:13:59;1.13;;;0.23;;
30519;SDS011;17300;50.374;8.006;2023-12-22T03:16:25;1.00;;;0.30;;
30519;SDS011;17300;50.374;8.006;2023-12-22T03:18:52;1.63;;;0.43;;
30519;SDS011;17300;50.374;8.006;2023-12-22T03:21:19;2.30;;;0.60;;
30519;SDS011;17300;50.374;8.006;2023-12-22T03:23:45;0.83;;;0.47;;
30519;SDS011;17300;50.374;8.006;2023-12-22T03:26:12;1.33;;;0.60;;
30519;SDS011;17300;50.374;8.006;2023-12-22T03:28:39;1.90;;;0.70;;
30519;SDS011;17300;50.374;8.006;2023-12-22T03:31:07;1.87;;;0.67;;
30519;SDS011;17300;50.374;8.006;2023-12-22T03:33:33;0.57;;;0.53;;
30519;SDS011;17300;50.374;8.006;2023-12-22T03:36:00;2.00;;;0.80;;
30519;SDS011;17300;50.374;8.006;2023-12-22T03:38:27;2.60;;;0.77;;
30519;SDS011;17300;50.374;8.006;2023-12-22T03:40:53;1.73;;;0.80;;
30519;SDS011;17300;50.374;8.006;2023-12-22T03:43:20;2.30;;;0.70;;
30519;SDS011;17300;50.374;8.006;2023-12-22T03:45:47;1.70;;;0.80;;
30519;SDS011;17300;50.374;8.006;2023-12-22T03:48:15;1.30;;;0.67;;
30519;SDS011;17300;50.374;8.006;2023-12-22T03:50:41;2.60;;;0.80;;
30519;SDS011;17300;50.374;8.006;2023-12-22T03:53:08;2.53;;;0.90;;
30519;SDS011;17300;50.374;8.006;2023-12-22T03:55:35;2.00;;;0.80;;
30519;SDS011;17300;50.374;8.006;2023-12-22T03:58:02;1.20;;;0.60;;
30519;SDS011;17300;50.374;8.006;2023-12-22T04:00:29;1.90;;;0.93;;
30519;SDS011;17300;50.374;8.006;2023-12-22T04:02:56;1.47;;;0.83;;
30519;SDS011;17300;50.374;8.006;2023-12-22T04:05:24;2.67;;;1.07;;
30519;SDS011;17300;50.374;8.006;2023-12-22T04:07:51;1.93;;;0.63;;
30519;SDS011;17300;50.374;8.006;2023-12-22T04:10:17;2.53;;;0.80;;
30519;SDS011;17300;50.374;8.006;2023-12-22T04:12:44;2.07;;;0.80;;
30519;SDS011;17300;50.374;8.006;2023-12-22T04:15:11;1.60;;;0.80;;
30519;SDS011;17300;50.374;8.006;2023-12-22T04:17:38;2.30;;;0.90;;
30519;SDS011;17300;50.374;8.006;2023-12-22T04:20:05;2.97;;;1.07;;
30519;SDS011;17300;50.374;8.006;2023-12-22T04:22:34;2.60;;;0.90;;
30519;SDS011;17300;50.374;8.006;2023-12-22T04:25:00;3.87;;;1.27;;
30519;SDS011;17300;50.374;8.006;2023-12-22T04:27:27;2.70;;;1.03;;
30519;SDS011;17300;50.374;8.006;2023-12-22T04:29:54;3.63;;;1.10;;
30519;SDS011;17300;50.374;8.006;2023-12-22T04:32:20;2.37;;;0.90;;
30519;SDS011;17300;50.374;8.006;2023-12-22T04:34:47;3.10;;;1.20;;
30519;SDS011;17300;50.374;8.006;2023-12-22T04:37:14;1.97;;;0.97;;
30519;SDS011;17300;50.374;8.006;2023-12-22T04:39:42;3.00;;;0.83;;
30519;SDS011;17300;50.374;8.006;2023-12-22T04:42:08;2.77;;;1.07;;
30519;SDS011;17300;50.374;8.006;2023-12-22T04:44:35;2.33;;;0.93;;
30519;SDS011;17300;50.374;8.006;2023-12-22T04:47:02;5.27;;;1.47;;
30519;SDS011;17300;50.374;8.006;2023-12-22T04:49:29;2.57;;;0.97;;
30519;SDS011;17300;50.374;8.006;2023-12-22T04:51:55;4.00;;;1.13;;
30519;SDS011;17300;50.374;8.006;2023-12-22T04:54:22;3.20;;;1.20;;
30519;SDS011;17300;50.374;8.006;2023-12-22T04:56:50;4.40;;;1.73;;
30519;SDS011;17300;50.374;8.006;2023-12-22T04:59:17;3.23;;;1.40;;
30519;SDS011;17300;50.374;8.006;2023-12-22T05:05:01;5.80;;;1.70;;
30519;SDS011;17300;50.374;8.006;2023-12-22T05:07:28;3.03;;;1.10;;
30519;SDS011;17300;50.374;8.006;2023-12-22T05:09:58;1.70;;;1.10;;
30519;SDS011;17300;50.374;8.006;2023-12-22T05:12:27;1.90;;;0.90;;
30519;SDS011;17300;50.374;8.006;2023-12-22T05:14:54;2.50;;;1.10;;
30519;SDS011;17300;50.374;8.006;2023-12-22T05:17:21;3.67;;;1.30;;
30519;SDS011;17300;50.374;8.006;2023-12-22T05:19:51;4.50;;;1.47;;
30519;SDS011;17300;50.374;8.006;2023-12-22T05:22:18;4.27;;;1.50;;
30519;SDS011;17300;50.374;8.006;2023-12-22T05:24:45;2.07;;;0.90;;
30519;SDS011;17300;50.374;8.006;2023-12-22T05:27:15;4.20;;;1.20;;
30519;SDS011;17300;50.374;8.006;2023-12-22T05:37:16;4.57;;;1.10;;
30519;SDS011;17300;50.374;8.006;2023-12-22T05:39:43;3.30;;;1.10;;
30519;SDS011;17300;50.374;8.006;2023-12-22T05:42:10;3.23;;;1.10;;
30519;SDS011;17300;50.374;8.006;2023-12-22T05:46:53;4.00;;;1.30;;
30519;SDS011;17300;50.374;8.006;2023-12-22T05:47:59;3.03;;;1.10;;
30519;SDS011;17300;50.374;8.006;2023-12-22T05:50:32;3.83;;;1.33;;
30519;SDS011;17300;50.374;8.006;2023-12-22T05:53:00;3.33;;;1.17;;
30519;SDS011;17300;50.374;8.006;2023-12-22T05:55:27;3.30;;;1.40;;
30519;SDS011;17300;50.374;8.006;2023-12-22T05:57:56;5.50;;;1.70;;
30519;SDS011;17300;50.374;8.006;2023-12-22T06:00:23;3.47;;;1.90;;
30519;SDS011;17300;50.374;8.006;2023-12-22T06:02:51;3.37;;;1.60;;
30519;SDS011;17300;50.374;8.006;2023-12-22T06:05:18;4.57;;;1.60;;
30519;SDS011;17300;50.374;8.006;2023-12-22T07:12:13;4.03;;;1.80;;
30519;SDS011;17300;50.374;8.006;2023-12-22T07:14:48;4.03;;;1.33;;
30519;SDS011;17300;50.374;8.006;2023-12-22T07:17:43;3.43;;;1.50;;
30519;SDS011;17300;50.374;8.006;2023-12-22T07:23:47;3.73;;;1.20;;
30519;SDS011;17300;50.374;8.006;2023-12-22T07:26:14;5.03;;;1.30;;
30519;SDS011;17300;50.374;8.006;2023-12-22T07:31:58;4.70;;;1.27;;
30519;SDS011;17300;50.374;8.006;2023-12-22T07:35:01;2.37;;;1.13;;
30519;SDS011;17300;50.374;8.006;2023-12-22T07:37:37;4.73;;;1.73;;
30519;SDS011;17300;50.374;8.006;2023-12-22T07:57:11;1.67;;;0.90;;
30519;SDS011;17300;50.374;8.006;2023-12-22T07:59:46;2.13;;;1.07;;
30519;SDS011;17300;50.374;8.006;2023-12-22T08:06:16;3.10;;;1.33;;
30519;SDS011;17300;50.374;8.006;2023-12-22T09:10:41;2.43;;;0.73;;
30519;SDS011;17300;50.374;8.006;2023-12-22T09:52:27;3.87;;;1.40;;
30519;SDS011;17300;50.374;8.006;2023-12-22T09:54:57;2.93;;;1.37;;
30519;SDS011;17300;50.374;8.006;2023-12-22T10:10:55;4.43;;;1.63;;
30519;SDS011;17300;50.374;8.006;2023-12-22T10:23:44;3.97;;;1.37;;
30519;SDS011;17300;50.374;8.006;2023-12-22T10:50:40;3.33;;;1.30;;
30519;SDS011;17300;50.374;8.006;2023-12-22T10:53:21;2.70;;;1.33;;
30519;SDS011;17300;50.374;8.006;2023-12-22T10:55:49;4.10;;;1.50;;
30519;SDS011;17300;50.374;8.006;2023-12-22T10:58:18;2.90;;;1.40;;
30519;SDS011;17300;50.374;8.006;2023-12-22T11:00:48;3.07;;;1.33;;
30519;SDS011;17300;50.374;8.006;2023-12-22T11:03:36;4.43;;;1.50;;
30519;SDS011;17300;50.374;8.006;2023-12-22T11:06:10;3.60;;;1.40;;
30519;SDS011;17300;50.374;8.006;2023-12-22T11:12:03;3.87;;;1.20;;
30519;SDS011;17300;50.374;8.006;2023-12-22T11:14:32;2.47;;;1.30;;
30519;SDS011;17300;50.374;8.006;2023-12-22T11:17:00;4.50;;;1.30;;
30519;SDS011;17300;50.374;8.006;2023-12-22T11:19:28;2.43;;;1.20;;
30519;SDS011;17300;50.374;8.006;2023-12-22T11:22:01;2.40;;;1.10;;
30519;SDS011;17300;50.374;8.006;2023-12-22T11:34:36;2.60;;;1.03;;
30519;SDS011;17300;50.374;8.006;2023-12-22T11:37:06;2.63;;;1.10;;
30519;SDS011;17300;50.374;8.006;2023-12-22T11:39:40;1.20;;;0.77;;
30519;SDS011;17300;50.374;8.006;2023-12-22T11:42:12;2.63;;;1.10;;
30519;SDS011;17300;50.374;8.006;2023-12-22T11:44:42;1.20;;;0.67;;
30519;SDS011;17300;50.374;8.006;2023-12-22T11:47:10;2.23;;;0.93;;
30519;SDS011;17300;50.374;8.006;2023-12-22T12:10:04;1.20;;;0.70;;
30519;SDS011;17300;50.374;8.006;2023-12-22T12:12:40;1.47;;;0.90;;
30519;SDS011;17300;50.374;8.006;2023-12-22T12:15:23;2.17;;;0.70;;
30519;SDS011;17300;50.374;8.006;2023-12-22T12:17:51;1.97;;;0.83;;
30519;SDS011;17300;50.374;8.006;2023-12-22T12:23:23;0.97;;;0.63;;
30519;SDS011;17300;50.374;8.006;2023-12-22T12:26:44;1.47;;;0.87;;
30519;SDS011;17300;50.374;8.006;2023-12-22T12:29:10;2.07;;;0.90;;
30519;SDS011;17300;50.374;8.006;2023-12-22T12:31:37;1.63;;;0.60;;
30519;SDS011;17300;50.374;8.006;2023-12-22T12:34:04;1.50;;;0.80;;
30519;SDS011;17300;50.374;8.006;2023-12-22T12:36:31;0.70;;;0.67;;
30519;SDS011;17300;50.374;8.006;2023-12-22T12:38:59;0.93;;;0.70;;
30519;SDS011;17300;50.374;8.006;2023-12-22T12:41:35;0.80;;;0.50;;
30519;SDS011;17300;50.374;8.006;2023-12-22T12:44:10;1.10;;;0.60;;
30519;SDS011;17300;50.374;8.006;2023-12-22T12:46:38;0.60;;;0.60;;
30519;SDS011;17300;50.374;8.006;2023-12-22T12:49:07;0.87;;;0.60;;
30519;SDS011;17300;50.374;8.006;2023-12-22T12:51:36;0.93;;;0.50;;
30519;SDS011;17300;50.374;8.006;2023-12-22T12:54:04;1.47;;;0.67;;
30519;SDS011;17300;50.374;8.006;2023-12-22T12:56:35;1.57;;;0.80;;
30519;SDS011;17300;50.374;8.006;2023-12-22T12:59:06;0.80;;;0.60;;
30519;SDS011;17300;50.374;8.006;2023-12-22T13:01:38;0.53;;;0.50;;
30519;SDS011;17300;50.374;8.006;2023-12-22T13:04:05;1.07;;;0.50;;
30519;SDS011;17300;50.374;8.006;2023-12-22T13:06:32;0.93;;;0.50;;
30519;SDS011;17300;50.374;8.006;2023-12-22T13:08:59;0.57;;;0.43;;
30519;SDS011;17300;50.374;8.006;2023-12-22T13:11:28;1.03;;;0.50;;
30519;SDS011;17300;50.374;8.006;2023-12-22T13:14:03;1.13;;;0.60;;
30519;SDS011;17300;50.374;8.006;2023-12-22T13:19:57;0.67;;;0.40;;
30519;SDS011;17300;50.374;8.006;2023-12-22T13:22:26;0.77;;;0.40;;
30519;SDS011;17300;50.374;8.006;2023-12-22T13:25:02;0.23;;;0.20;;
30519;SDS011;17300;50.374;8.006;2023-12-22T13:27:46;1.53;;;0.50;;
30519;SDS011;17300;50.374;8.006;2023-12-22T13:30:13;0.50;;;0.40;;
30519;SDS011;17300;50.374;8.006;2023-12-22T13:32:40;1.17;;;0.40;;
30519;SDS011;17300;50.374;8.006;2023-12-22T13:35:12;0.80;;;0.60;;
30519;SDS011;17300;50.374;8.006;2023-12-22T13:37:42;0.50;;;0.50;;
30519;SDS011;17300;50.374;8.006;2023-12-22T13:40:09;0.50;;;0.30;;
30519;SDS011;17300;50.374;8.006;2023-12-22T13:42:37;1.43;;;0.53;;
30519;SDS011;17300;50.374;8.006;2023-12-22T13:45:09;0.37;;;0.37;;
30519;SDS011;17300;50.374;8.006;2023-12-22T13:47:39;1.37;;;0.40;;
30519;SDS011;17300;50.374;8.006;2023-12-22T13:50:14;0.80;;;0.53;;
30519;SDS011;17300;50.374;8.006;2023-12-22T13:52:41;0.50;;;0.50;;
30519;SDS011;17300;50.374;8.006;2023-12-22T13:55:11;0.83;;;0.40;;
30519;SDS011;17300;50.374;8.006;2023-12-22T13:57:39;0.60;;;0.40;;
30519;SDS011;17300;50.374;8.006;2023-12-22T14:00:24;0.77;;;0.50;;
30519;SDS011;17300;50.374;8.006;2023-12-22T14:22:42;3.27;;;1.50;;
30519;SDS011;17300;50.374;8.006;2023-12-22T15:41:00;0.93;;;0.50;;
30519;SDS011;17300;50.374;8.006;2023-12-22T15:43:43;0.93;;;0.40;;
30519;SDS011;17300;50.374;8.006;2023-12-22T16:10:10;0.47;;;0.40;;
30519;SDS011;17300;50.374;8.006;2023-12-22T16:13:05;0.40;;;0.40;;
30519;SDS011;17300;50.374;8.006;2023-12-22T16:23:33;0.53;;;0.40;;
30519;SDS011;17300;50.374;8.006;2023-12-22T16:36:07;0.93;;;0.40;;
30519;SDS011;17300;50.374;8.006;2023-12-22T16:38:35;0.60;;;0.30;;
30519;SDS011;17300;50.374;8.006;2023-12-22T16:41:25;1.77;;;0.53;;
30519;SDS011;17300;50.374;8.006;2023-12-22T16:43:54;1.10;;;0.67;;
30519;SDS011;17300;50.374;8.006;2023-12-22T16:46:22;0.87;;;0.50;;
30519;SDS011;17300;50.374;8.006;2023-12-22T16:48:50;0.90;;;0.50;;
30519;SDS011;17300;50.374;8.006;2023-12-22T16:51:29;1.30;;;0.63;;
30519;SDS011;17300;50.374;8.006;2023-12-22T16:53:57;2.60;;;0.70;;
30519;SDS011;17300;50.374;8.006;2023-12-22T16:56:24;0.77;;;0.50;;
30519;SDS011;17300;50.374;8.006;2023-12-22T16:58:51;1.60;;;0.60;;
30519;SDS011;17300;50.374;8.006;2023-12-22T17:01:18;0.70;;;0.50;;
30519;SDS011;17300;50.374;8.006;2023-12-22T17:03:45;0.97;;;0.60;;
30519;SDS011;17300;50.374;8.006;2023-12-22T17:06:12;1.17;;;0.43;;
30519;SDS011;17300;50.374;8.006;2023-12-22T17:08:40;1.07;;;0.67;;
30519;SDS011;17300;50.374;8.006;2023-12-22T17:11:07;1.33;;;0.77;;
30519;SDS011;17300;50.374;8.006;2023-12-22T17:13:34;0.87;;;0.53;;
30519;SDS011;17300;50.374;8.006;2023-12-22T17:16:01;1.13;;;0.40;;
30519;SDS011;17300;50.374;8.006;2023-12-22T17:18:27;0.83;;;0.50;;
30519;SDS011;17300;50.374;8.006;2023-12-22T17:20:54;1.63;;;0.80;;
30519;SDS011;17300;50.374;8.006;2023-12-22T17:23:21;2.23;;;0.77;;
30519;SDS011;17300;50.374;8.006;2023-12-22T17:25:49;1.27;;;0.60;;
30519;SDS011;17300;50.374;8.006;2023-12-22T17:28:17;1.27;;;0.67;;
30519;SDS011;17300;50.374;8.006;2023-12-22T17:30:44;1.07;;;0.73;;
30519;SDS011;17300;50.374;8.006;2023-12-22T17:33:11;1.17;;;0.60;;
30519;SDS011;17300;50.374;8.006;2023-12-22T17:35:37;1.67;;;0.60;;
30519;SDS011;17300;50.374;8.006;2023-12-22T17:38:04;1.00;;;0.60;;
30519;SDS011;17300;50.374;8.006;2023-12-22T17:40:33;1.33;;;0.67;;
30519;SDS011;17300;50.374;8.006;2023-12-22T17:43:01;0.60;;;0.60;;
30519;SDS011;17300;50.374;8.006;2023-12-22T17:45:28;1.30;;;0.50;;
30519;SDS011;17300;50.374;8.006;2023-12-22T17:47:55;1.13;;;0.70;;
30519;SDS011;17300;50.374;8.006;2023-12-22T17:50:21;1.93;;;0.77;;
30519;SDS011;17300;50.374;8.006;2023-12-22T17:52:48;1.23;;;0.60;;
30519;SDS011;17300;50.374;8.006;2023-12-22T17:55:15;2.67;;;0.77;;
30519;SDS011;17300;50.374;8.006;2023-12-22T17:57:42;1.07;;;0.83;;
30519;SDS011;17300;50.374;8.006;2023-12-22T18:00:11;1.40;;;0.90;;
30519;SDS011;17300;50.374;8.006;2023-12-22T18:02:40;1.20;;;0.60;;
30519;SDS011;17300;50.374;8.006;2023-12-22T18:05:07;1.30;;;0.50;;
30519;SDS011;17300;50.374;8.006;2023-12-22T18:07:34;1.03;;;0.67;;
30519;SDS011;17300;50.374;8.006;2023-12-22T18:10:01;0.90;;;0.63;;
30519;SDS011;17300;50.374;8.006;2023-12-22T18:12:34;0.90;;;0.67;;
30519;SDS011;17300;50.374;8.006;2023-12-22T18:15:01;0.97;;;0.70;;
30519;SDS011;17300;50.374;8.006;2023-12-22T18:17:29;1.50;;;0.90;;
30519;SDS011;17300;50.374;8.006;2023-12-22T18:19:58;1.50;;;0.90;;
30519;SDS011;17300;50.374;8.006;2023-12-22T18:22:25;1.70;;;1.10;;
30519;SDS011;17300;50.374;8.006;2023-12-22T18:24:52;0.93;;;0.60;;
30519;SDS011;17300;50.374;8.006;2023-12-22T18:27:19;1.30;;;0.73;;
30519;SDS011;17300;50.374;8.006;2023-12-22T18:29:46;1.67;;;0.77;;
30519;SDS011;17300;50.374;8.006;2023-12-22T18:32:13;1.43;;;0.70;;
30519;SDS011;17300;50.374;8.006;2023-12-22T18:34:41;1.50;;;0.80;;
30519;SDS011;17300;50.374;8.006;2023-12-22T18:37:07;2.50;;;0.80;;
30519;SDS011;17300;50.374;8.006;2023-12-22T18:39:34;1.00;;;0.70;;
30519;SDS011;17300;50.374;8.006;2023-12-22T18:42:02;1.37;;;0.53;;
30519;SDS011;17300;50.374;8.006;2023-12-22T18:44:29;1.17;;;0.60;;
30519;SDS011;17300;50.374;8.006;2023-12-22T18:46:56;1.70;;;0.70;;
30519;SDS011;17300;50.374;8.006;2023-12-22T18:49:23;1.20;;;0.70;;
30519;SDS011;17300;50.374;8.006;2023-12-22T18:51:51;1.57;;;0.80;;
30519;SDS011;17300;50.374;8.006;2023-12-22T18:54:18;1.27;;;0.90;;
30519;SDS011;17300;50.374;8.006;2023-12-22T18:56:45;0.67;;;0.67;;
30519;SDS011;17300;50.374;8.006;2023-12-22T18:59:13;0.80;;;0.80;;
30519;SDS011;17300;50.374;8.006;2023-12-22T19:01:40;1.67;;;0.60;;
30519;SDS011;17300;50.374;8.006;2023-12-22T19:04:07;1.03;;;0.77;;
30519;SDS011;17300;50.374;8.006;2023-12-22T19:06:33;0.97;;;0.70;;
30519;SDS011;17300;50.374;8.006;2023-12-22T19:09:02;1.60;;;0.80;;
30519;SDS011;17300;50.374;8.006;2023-12-22T19:11:29;1.47;;;0.73;;
30519;SDS011;17300;50.374;8.006;2023-12-22T19:13:56;1.33;;;0.70;;
30519;SDS011;17300;50.374;8.006;2023-12-22T19:16:22;0.70;;;0.60;;
30519;SDS011;17300;50.374;8.006;2023-12-22T19:18:52;5.23;;;0.90;;
30519;SDS011;17300;50.374;8.006;2023-12-22T19:21:19;1.60;;;0.70;;
30519;SDS011;17300;50.374;8.006;2023-12-22T19:23:46;1.07;;;0.83;;
30519;SDS011;17300;50.374;8.006;2023-12-22T19:26:14;1.27;;;0.90;;
30519;SDS011;17300;50.374;8.006;2023-12-22T19:28:42;1.80;;;0.97;;
30519;SDS011;17300;50.374;8.006;2023-12-22T19:31:09;0.97;;;0.60;;
30519;SDS011;17300;50.374;8.006;2023-12-22T19:33:46;2.60;;;0.70;;
30519;SDS011;17300;50.374;8.006;2023-12-22T19:36:12;1.40;;;0.83;;
30519;SDS011;17300;50.374;8.006;2023-12-22T19:38:39;2.23;;;0.80;;
30519;SDS011;17300;50.374;8.006;2023-12-22T19:41:06;1.67;;;0.70;;
30519;SDS011;17300;50.374;8.006;2023-12-22T19:43:34;0.93;;;0.80;;
30519;SDS011;17300;50.374;8.006;2023-12-22T19:46:01;1.87;;;0.83;;
30519;SDS011;17300;50.374;8.006;2023-12-22T19:48:28;1.30;;;0.60;;
30519;SDS011;17300;50.374;8.006;2023-12-22T19:50:54;1.10;;;0.73;;
30519;SDS011;17300;50.374;8.006;2023-12-22T19:53:21;1.50;;;0.80;;
30519;SDS011;17300;50.374;8.006;2023-12-22T19:55:47;1.87;;;0.73;;
30519;SDS011;17300;50.374;8.006;2023-12-22T19:58:14;0.90;;;0.57;;
30519;SDS011;17300;50.374;8.006;2023-12-22T20:00:42;1.27;;;0.50;;
30519;SDS011;17300;50.374;8.006;2023-12-22T20:03:10;1.10;;;0.60;;
30519;SDS011;17300;50.374;8.006;2023-12-22T20:05:37;1.27;;;0.73;;
30519;SDS011;17300;50.374;8.006;2023-12-22T20:08:06;1.90;;;0.80;;
30519;SDS011;17300;50.374;8.006;2023-12-22T20:10:33;1.23;;;0.70;;
30519;SDS011;17300;50.374;8.006;2023-12-22T20:13:00;1.70;;;0.87;;
30519;SDS011;17300;50.374;8.006;2023-12-22T20:15:27;1.70;;;0.80;;
30519;SDS011;17300;50.374;8.006;2023-12-22T20:17:55;1.23;;;0.60;;
30519;SDS011;17300;50.374;8.006;2023-12-22T20:20:22;1.07;;;0.50;;
30519;SDS011;17300;50.374;8.006;2023-12-22T20:22:48;1.43;;;0.70;;
30519;SDS011;17300;50.374;8.006;2023-12-22T20:25:15;1.30;;;0.80;;
30519;SDS011;17300;50.374;8.006;2023-12-22T20:27:42;1.90;;;0.90;;
30519;SDS011;17300;50.374;8.006;2023-12-22T20:30:09;2.27;;;0.70;;
30519;SDS011;17300;50.374;8.006;2023-12-22T20:32:36;1.30;;;0.83;;
30519;SDS011;17300;50.374;8.006;2023-12-22T20:35:05;1.33;;;0.63;;
30519;SDS011;17300;50.374;8.006;2023-12-22T20:37:33;2.00;;;0.80;;
30519;SDS011;17300;50.374;8.006;2023-12-22T20:40:00;1.27;;;0.60;;
30519;SDS011;17300;50.374;8.006;2023-12-22T20:42:26;1.30;;;0.70;;
30519;SDS011;17300;50.374;8.006;2023-12-22T20:44:53;1.47;;;0.70;;
30519;SDS011;17300;50.374;8.006;2023-12-22T20:47:21;0.83;;;0.60;;
30519;SDS011;17300;50.374;8.006;2023-12-22T20:49:47;2.20;;;1.10;;
30519;SDS011;17300;50.374;8.006;2023-12-22T20:52:15;1.20;;;0.80;;
30519;SDS011;17300;50.374;8.006;2023-12-22T20:54:42;2.80;;;1.10;;
30519;SDS011;17300;50.374;8.006;2023-12-22T20:57:09;1.80;;;0.87;;
30519;SDS011;17300;50.374;8.006;2023-12-22T20:59:36;1.43;;;0.93;;
30519;SDS011;17300;50.374;8.006;2023-12-22T21:02:03;1.33;;;0.70;;
30519;SDS011;17300;50.374;8.006;2023-12-22T21:04:30;1.10;;;0.93;;
30519;SDS011;17300;50.374;8.006;2023-12-22T21:06:57;2.40;;;0.70;;
30519;SDS011;17300;50.374;8.006;2023-12-22T21:09:25;2.17;;;0.77;;
30519;SDS011;17300;50.374;8.006;2023-12-22T21:11:51;1.53;;;0.90;;
30519;SDS011;17300;50.374;8.006;2023-12-22T21:14:20;0.83;;;0.60;;
30519;SDS011;17300;50.374;8.006;2023-12-22T21:16:46;1.40;;;0.73;;
30519;SDS011;17300;50.374;8.006;2023-12-22T21:19:13;2.50;;;0.80;;
30519;SDS011;17300;50.374;8.006;2023-12-22T21:21:41;2.07;;;1.00;;
30519;SDS011;17300;50.374;8.006;2023-12-22T21:24:07;1.27;;;0.80;;
30519;SDS011;17300;50.374;8.006;2023-12-22T21:26:36;1.93;;;1.10;;
30519;SDS011;17300;50.374;8.006;2023-12-22T21:29:02;2.43;;;0.83;;
30519;SDS011;17300;50.374;8.006;2023-12-22T21:31:29;1.23;;;0.87;;
30519;SDS011;17300;50.374;8.006;2023-12-22T21:33:56;1.33;;;0.70;;
30519;SDS011;17300;50.374;8.006;2023-12-22T21:36:23;2.63;;;0.97;;
30519;SDS011;17300;50.374;8.006;2023-12-22T21:38:51;1.60;;;0.90;;
30519;SDS011;17300;50.374;8.006;2023-12-22T21:41:18;0.90;;;0.57;;
30519;SDS011;17300;50.374;8.006;2023-12-22T21:43:47;1.33;;;0.70;;
30519;SDS011;17300;50.374;8.006;2023-12-22T21:46:14;1.97;;;0.67;;
30519;SDS011;17300;50.374;8.006;2023-12-22T21:48:40;0.83;;;0.70;;
30519;SDS011;17300;50.374;8.006;2023-12-22T21:51:07;1.23;;;0.80;;
30519;SDS011;17300;50.374;8.006;2023-12-22T21:53:34;3.30;;;1.10;;
30519;SDS011;17300;50.374;8.006;2023-12-22T21:56:04;1.63;;;0.87;;
30519;SDS011;17300;50.374;8.006;2023-12-22T21:58:30;1.53;;;0.80;;
30519;SDS011;17300;50.374;8.006;2023-12-22T22:00:58;1.07;;;0.80;;
30519;SDS011;17300;50.374;8.006;2023-12-22T22:03:28;0.90;;;0.60;;
30519;SDS011;17300;50.374;8.006;2023-12-22T22:05:54;2.33;;;0.93;;
30519;SDS011;17300;50.374;8.006;2023-12-22T22:08:21;1.87;;;0.70;;